Time;durP1;ratioP1;P1;durP2;ratioP2;P2;SDS_P1;SDS_P2;PMS_P1;PMS_P2;Temp;Humidity;BMP_temperature;BMP_pressure;BME280_temperature;BME280_humidity;BME280_pressure;Samples;Min_cycle;Max_cycle;Signal;HPM_P1;HPM_P2
2023/07/25 00:02:04;;;;;;;10.93;7.15;;;;;;;19.77;69.71;96158.34;5096822;28;20430;-64
2023/07/25 00:04:32;;;;;;;9.82;7.43;;;;;;;19.70;70.05;96145.59;5096727;28;20076;-64
2023/07/25 00:06:59;;;;;;;8.82;6.53;;;;;;;19.74;70.65;96148.81;5096777;28;20436;-65
2023/07/25 00:09:26;;;;;;;8.35;7.15;;;;;;;19.76;70.49;96146.06;5096798;28;20101;-64
2023/07/25 00:11:53;;;;;;;9.15;7.45;;;;;;;19.66;70.47;96152.09;5096761;28;20078;-66
2023/07/25 00:14:22;;;;;;;10.13;8.13;;;;;;;19.60;70.56;96157.06;5096646;28;20573;-67
2023/07/25 00:16:50;;;;;;;11.32;7.63;;;;;;;19.62;70.98;96174.53;5096688;28;20531;-67
2023/07/25 00:19:17;;;;;;;9.77;6.10;;;;;;;19.66;70.61;96175.16;5096412;28;20044;-66
2023/07/25 00:21:44;;;;;;;7.40;6.60;;;;;;;19.60;70.79;96171.19;5096457;28;20052;-65
2023/07/25 00:24:11;;;;;;;8.80;6.70;;;;;;;19.55;70.83;96163.59;5096662;28;20048;-66
2023/07/25 00:26:38;;;;;;;7.85;6.53;;;;;;;19.50;71.27;96165.75;5096510;28;20082;-64
2023/07/25 00:29:05;;;;;;;10.60;6.68;;;;;;;19.52;71.67;96166.50;5096490;28;20051;-64
2023/07/25 00:31:33;;;;;;;9.90;6.88;;;;;;;19.54;71.53;96161.06;5096381;28;20072;-65
2023/07/25 00:34:00;;;;;;;8.35;6.40;;;;;;;19.51;71.41;96162.13;5096407;28;20040;-65
2023/07/25 00:36:27;;;;;;;11.23;6.95;;;;;;;19.47;71.90;96159.88;5096279;28;20048;-65
2023/07/25 00:38:55;;;;;;;10.25;7.25;;;;;;;19.45;72.11;96162.66;5096134;28;20131;-65
2023/07/25 00:41:22;;;;;;;8.02;6.53;;;;;;;19.45;71.80;96165.31;5096108;28;20063;-66
2023/07/25 00:43:49;;;;;;;9.45;6.85;;;;;;;19.45;72.07;96170.63;5096163;28;20101;-64
2023/07/25 00:46:16;;;;;;;7.97;6.47;;;;;;;19.38;71.88;96159.63;5096136;28;20105;-64
2023/07/25 00:48:46;;;;;;;9.95;6.47;;;;;;;19.37;72.37;96162.41;5096101;28;20047;-67
2023/07/25 00:51:13;;;;;;;9.35;6.75;;;;;;;19.40;72.58;96159.50;5096015;28;20528;-67
2023/07/25 00:53:40;;;;;;;7.20;6.32;;;;;;;19.39;71.99;96155.19;5095957;28;20040;-66
2023/07/25 00:56:08;;;;;;;11.77;6.03;;;;;;;19.34;72.13;96158.22;5095935;28;20052;-67
2023/07/25 00:58:36;;;;;;;15.07;6.68;;;;;;;19.29;72.02;96161.22;5095819;28;20580;-67
2023/07/25 01:01:03;;;;;;;10.10;6.43;;;;;;;19.31;72.26;96153.16;5095752;28;20079;-64
2023/07/25 01:03:31;;;;;;;9.10;6.15;;;;;;;19.27;72.40;96155.19;5095405;28;20087;-66
2023/07/25 01:06:03;;;;;;;8.98;7.13;;;;;;;19.20;72.51;96148.69;5095724;28;20044;-64
2023/07/25 01:08:30;;;;;;;10.23;6.00;;;;;;;19.17;72.82;96157.72;5094282;28;20051;-65
2023/07/25 01:10:57;;;;;;;8.30;6.55;;;;;;;19.14;73.23;96152.69;5095555;28;20164;-65
2023/07/25 01:13:25;;;;;;;12.10;7.22;;;;;;;19.15;73.45;96145.56;5095575;28;20097;-67
2023/07/25 01:15:54;;;;;;;7.45;6.47;;;;;;;19.14;73.54;96139.41;5095444;28;20076;-64
2023/07/25 01:18:22;;;;;;;8.32;6.55;;;;;;;19.09;72.43;96141.59;5095395;28;20040;-64
2023/07/25 01:20:49;;;;;;;7.90;6.10;;;;;;;19.03;73.03;96145.53;5095506;28;20131;-65
2023/07/25 01:23:19;;;;;;;10.32;6.65;;;;;;;19.04;73.58;96152.53;5095432;28;20456;-65
2023/07/25 01:25:48;;;;;;;8.10;6.53;;;;;;;19.01;73.87;96158.06;5095360;28;20048;-66
2023/07/25 01:28:16;;;;;;;12.60;6.82;;;;;;;18.97;73.10;96161.09;5095400;28;20102;-65
2023/07/25 01:30:44;;;;;;;10.20;6.95;;;;;;;18.91;73.25;96162.41;5095214;28;20048;-65
2023/07/25 01:33:11;;;;;;;8.82;5.90;;;;;;;18.81;73.59;96156.97;5095108;28;20091;-67
2023/07/25 01:35:38;;;;;;;8.10;6.70;;;;;;;18.79;73.99;96151.78;5095187;28;20486;-66
2023/07/25 01:38:05;;;;;;;10.02;6.95;;;;;;;18.77;74.18;96144.94;5095093;28;20139;-66
2023/07/25 01:40:33;;;;;;;7.75;6.55;;;;;;;18.78;74.85;96147.47;5095031;28;20047;-64
2023/07/25 01:43:01;;;;;;;9.85;7.65;;;;;;;18.78;75.33;96133.38;5094901;28;20054;-67
2023/07/25 01:45:28;;;;;;;13.75;6.97;;;;;;;18.82;75.24;96137.47;5094979;28;20097;-65
2023/07/25 01:47:56;;;;;;;9.65;6.38;;;;;;;18.79;74.62;96135.88;5094822;28;20130;-66
2023/07/25 01:50:24;;;;;;;7.28;6.40;;;;;;;18.75;74.58;96149.53;5094771;28;20090;-67
2023/07/25 01:52:51;;;;;;;9.07;7.10;;;;;;;18.73;74.56;96152.28;5094955;28;20101;-64
2023/07/25 01:55:18;;;;;;;6.80;6.13;;;;;;;18.75;74.59;96144.22;5094769;28;20090;-65
2023/07/25 01:57:45;;;;;;;8.32;6.93;;;;;;;18.78;74.82;96152.75;5094697;28;20405;-64
2023/07/25 02:00:14;;;;;;;12.25;7.05;;;;;;;18.81;74.96;96154.31;5094663;28;20492;-65
2023/07/25 02:02:41;;;;;;;8.55;6.68;;;;;;;18.84;75.03;96142.66;5094384;28;20478;-64
2023/07/25 02:05:08;;;;;;;10.15;6.45;;;;;;;18.83;74.47;96155.06;5094553;28;20054;-66
2023/07/25 02:07:36;;;;;;;9.07;6.90;;;;;;;18.78;74.72;96154.59;5094512;28;20095;-67
2023/07/25 02:10:04;;;;;;;8.02;6.82;;;;;;;18.69;74.86;96150.81;5094601;28;20052;-64
2023/07/25 02:12:31;;;;;;;11.60;6.90;;;;;;;18.68;75.05;96157.09;5094439;28;20487;-64
2023/07/25 02:14:58;;;;;;;9.52;6.88;;;;;;;18.73;75.00;96162.88;5094382;28;20066;-64
2023/07/25 02:17:26;;;;;;;11.00;7.50;;;;;;;18.71;74.85;96159.50;5094349;28;20052;-65
2023/07/25 02:19:54;;;;;;;8.75;7.50;;;;;;;18.69;74.58;96167.56;5093915;28;20044;-66
2023/07/25 02:22:21;;;;;;;12.65;7.22;;;;;;;18.67;74.82;96160.69;5094135;28;20056;-66
2023/07/25 02:24:48;;;;;;;9.52;7.07;;;;;;;18.67;74.53;96163.34;5094167;28;20082;-64
2023/07/25 02:27:15;;;;;;;8.35;7.07;;;;;;;18.65;75.44;96163.47;5094054;28;20055;-67
2023/07/25 02:29:42;;;;;;;9.30;7.63;;;;;;;18.68;75.43;96157.94;5094090;28;20080;-63
2023/07/25 02:32:09;;;;;;;11.98;8.15;;;;;;;18.71;76.23;96161.28;5093942;28;20070;-65
2023/07/25 02:34:38;;;;;;;8.98;6.70;;;;;;;18.71;75.87;96164.78;5094009;28;20051;-64
2023/07/25 02:37:05;;;;;;;8.35;7.10;;;;;;;18.72;75.39;96160.34;5093918;28;20048;-67
2023/07/25 02:39:32;;;;;;;10.02;6.93;;;;;;;18.71;74.62;96161.28;5093904;28;20494;-65
2023/07/25 02:41:59;;;;;;;11.65;7.18;;;;;;;18.69;74.67;96150.81;5093814;28;20048;-67
2023/07/25 02:44:26;;;;;;;11.57;7.05;;;;;;;18.68;74.75;96143.84;5093803;28;20051;-66
2023/07/25 02:46:53;;;;;;;8.27;7.43;;;;;;;18.65;74.15;96144.94;5093737;28;20086;-64
2023/07/25 02:49:20;;;;;;;11.98;8.10;;;;;;;18.58;74.17;96150.81;5093734;28;20200;-66
2023/07/25 02:51:48;;;;;;;11.77;7.43;;;;;;;18.56;75.53;96149.13;5093645;28;20135;-67
2023/07/25 02:54:15;;;;;;;8.68;7.78;;;;;;;18.54;75.93;96145.75;5093599;28;20055;-65
2023/07/25 02:56:42;;;;;;;8.98;6.85;;;;;;;18.53;74.88;96152.00;5093657;28;20047;-64
2023/07/25 02:59:09;;;;;;;9.50;7.63;;;;;;;18.44;75.06;96153.56;5093421;28;20047;-64
2023/07/25 03:01:36;;;;;;;11.90;7.00;;;;;;;18.37;75.46;96146.19;5093496;28;20513;-65
2023/07/25 03:04:03;;;;;;;10.30;7.28;;;;;;;18.32;75.55;96151.84;5093252;28;20051;-67
2023/07/25 03:06:30;;;;;;;9.75;7.65;;;;;;;18.34;75.98;96154.38;5093482;28;20127;-64
2023/07/25 03:08:59;;;;;;;8.65;7.25;;;;;;;18.36;76.59;96155.09;5093372;28;20462;-63
2023/07/25 03:11:27;;;;;;;9.48;8.07;;;;;;;18.42;77.06;96159.91;5093483;28;20040;-66
2023/07/25 03:13:54;;;;;;;7.97;7.05;;;;;;;18.48;77.44;96164.75;5093368;28;20379;-63
2023/07/25 03:16:21;;;;;;;9.07;7.38;;;;;;;18.54;76.95;96168.72;5093270;28;20135;-65
2023/07/25 03:18:48;;;;;;;9.90;7.45;;;;;;;18.57;76.70;96165.84;5093199;28;20109;-66
2023/07/25 03:21:15;;;;;;;9.93;7.20;;;;;;;18.55;76.30;96167.78;5093334;28;20127;-66
2023/07/25 03:23:42;;;;;;;8.63;7.60;;;;;;;18.51;75.54;96174.28;5093190;28;20101;-66
2023/07/25 03:26:11;;;;;;;11.63;7.70;;;;;;;18.51;75.93;96166.34;5093236;28;20054;-66
2023/07/25 03:28:38;;;;;;;8.90;7.32;;;;;;;18.57;76.16;96171.13;5093260;28;20062;-64
2023/07/25 03:31:06;;;;;;;9.13;7.22;;;;;;;18.66;76.32;96172.28;5092362;28;20387;-65
2023/07/25 03:33:33;;;;;;;8.05;7.25;;;;;;;18.72;76.28;96171.78;5093239;28;20084;-67
2023/07/25 03:36:01;;;;;;;9.60;7.72;;;;;;;18.79;76.46;96166.84;5093142;28;20132;-67
2023/07/25 03:38:28;;;;;;;10.13;7.80;;;;;;;18.85;76.20;96170.84;5093138;28;20048;-65
2023/07/25 03:40:55;;;;;;;13.00;8.25;;;;;;;18.94;75.69;96164.81;5093098;28;20091;-67
2023/07/25 03:43:24;;;;;;;9.10;7.43;;;;;;;19.01;75.07;96173.97;5092952;28;20444;-63
2023/07/25 03:45:51;;;;;;;11.43;7.43;;;;;;;19.08;74.28;96168.22;5093056;28;20105;-63
2023/07/25 03:48:19;;;;;;;8.77;7.35;;;;;;;19.08;74.37;96174.34;5092952;28;20093;-64
2023/07/25 03:50:46;;;;;;;12.77;7.40;;;;;;;19.13;75.01;96158.94;5093194;28;20044;-63
2023/07/25 03:53:13;;;;;;;14.05;7.95;;;;;;;19.26;75.19;96156.16;5093005;28;20051;-66
2023/07/25 03:55:40;;;;;;;8.75;7.18;;;;;;;19.40;74.51;96163.03;5092928;28;20044;-66
2023/07/25 03:58:08;;;;;;;11.60;7.43;;;;;;;19.57;74.05;96150.22;5092832;28;20135;-65
2023/07/25 04:00:38;;;;;;;8.60;7.28;;;;;;;19.78;73.50;96144.13;5092988;28;20055;-66
2023/07/25 04:03:05;;;;;;;11.43;7.20;;;;;;;20.02;72.32;96146.59;5092629;28;20131;-66
2023/07/25 04:05:32;;;;;;;8.68;6.65;;;;;;;20.27;72.02;96159.63;5092960;28;20048;-64
2023/07/25 04:07:59;;;;;;;9.82;7.47;;;;;;;20.54;71.67;96159.13;5092918;28;20398;-66
2023/07/25 04:10:27;;;;;;;8.20;6.75;;;;;;;20.90;70.14;96164.13;5092739;28;20055;-66
2023/07/25 04:12:54;;;;;;;9.27;7.20;;;;;;;21.22;69.12;96164.94;5092749;28;20048;-66
2023/07/25 04:15:21;;;;;;;9.23;6.60;;;;;;;21.54;68.32;96166.59;5092787;28;20087;-64
2023/07/25 04:17:50;;;;;;;8.73;6.45;;;;;;;21.88;66.92;96173.38;5092736;28;20051;-66
2023/07/25 04:20:17;;;;;;;7.20;6.10;;;;;;;22.22;66.38;96165.00;5092712;28;20097;-67
2023/07/25 04:22:44;;;;;;;9.48;6.82;;;;;;;22.58;65.38;96160.94;5092586;28;20087;-66
2023/07/25 04:25:11;;;;;;;11.20;6.43;;;;;;;22.90;64.30;96166.91;5092606;28;20055;-64
2023/07/25 04:27:38;;;;;;;9.40;6.15;;;;;;;23.22;63.04;96169.16;5092724;28;20071;-66
2023/07/25 04:30:07;;;;;;;11.63;6.80;;;;;;;23.55;61.84;96162.56;5092736;28;20045;-65
2023/07/25 04:32:34;;;;;;;7.32;5.82;;;;;;;23.88;61.35;96164.75;5092600;28;20074;-64
2023/07/25 04:35:02;;;;;;;10.48;6.40;;;;;;;24.20;60.66;96164.25;5092580;28;20051;-66
2023/07/25 04:37:29;;;;;;;7.13;6.15;;;;;;;24.54;59.22;96159.16;5092540;28;20051;-66
2023/07/25 04:39:56;;;;;;;7.03;6.10;;;;;;;24.83;58.73;96164.22;5092537;28;20044;-65
2023/07/25 04:42:24;;;;;;;8.80;6.38;;;;;;;25.18;58.13;96171.44;5093957;28;20044;-64
2023/07/25 04:44:51;;;;;;;6.05;5.45;;;;;;;25.52;56.92;96165.25;5096103;28;20140;-64
2023/07/25 04:47:18;;;;;;;8.20;6.80;;;;;;;25.81;56.76;96161.34;5096028;28;20379;-64
2023/07/25 04:49:45;;;;;;;7.60;6.30;;;;;;;26.10;56.76;96161.91;5096083;28;20501;-64
2023/07/25 04:52:14;;;;;;;8.00;6.45;;;;;;;26.41;55.56;96149.72;5095983;28;20048;-66
2023/07/25 04:54:41;;;;;;;9.80;6.22;;;;;;;26.64;54.76;96155.25;5096035;28;20083;-65
2023/07/25 04:57:08;;;;;;;6.30;5.63;;;;;;;26.81;54.04;96157.88;5095996;28;20554;-66
2023/07/25 04:59:35;;;;;;;7.22;5.90;;;;;;;27.05;53.96;96156.16;5095803;28;20094;-66
2023/07/25 05:02:03;;;;;;;7.13;5.90;;;;;;;27.25;53.48;96162.84;5095785;28;20040;-65
2023/07/25 05:04:30;;;;;;;7.72;6.93;;;;;;;27.42;53.35;96165.44;5095477;28;20086;-66
2023/07/25 05:06:57;;;;;;;8.60;6.40;;;;;;;27.67;52.52;96169.91;5095683;28;20056;-67
2023/07/25 05:09:26;;;;;;;7.82;6.57;;;;;;;27.96;50.92;96169.22;5095613;28;20543;-66
2023/07/25 05:11:53;;;;;;;10.70;7.32;;;;;;;28.15;51.16;96168.94;5095622;28;20047;-65
2023/07/25 05:14:21;;;;;;;11.88;7.45;;;;;;;28.36;50.73;96163.75;5095663;28;20055;-66
2023/07/25 05:16:48;;;;;;;9.88;7.25;;;;;;;28.58;50.75;96165.78;5095527;28;20093;-66
2023/07/25 05:19:15;;;;;;;8.52;7.32;;;;;;;28.84;49.39;96162.66;5095506;28;20044;-65
2023/07/25 05:21:43;;;;;;;8.68;7.70;;;;;;;29.12;48.70;96164.78;5095440;28;20040;-66
2023/07/25 05:24:10;;;;;;;9.52;7.32;;;;;;;29.45;47.46;96174.34;5095235;28;20098;-66
2023/07/25 05:26:39;;;;;;;10.25;7.07;;;;;;;29.73;46.34;96175.50;5095194;28;20044;-65
2023/07/25 05:29:06;;;;;;;9.15;7.43;;;;;;;30.01;46.31;96174.81;5095314;28;20058;-66
2023/07/25 05:31:33;;;;;;;13.18;7.47;;;;;;;30.21;46.09;96175.03;5095226;28;20048;-65
2023/07/25 05:34:00;;;;;;;10.70;7.40;;;;;;;30.45;45.02;96175.69;5095110;28;20551;-66
2023/07/25 05:36:27;;;;;;;9.82;7.80;;;;;;;30.64;45.50;96158.00;5095150;28;20139;-65
2023/07/25 05:38:54;;;;;;;8.93;8.02;;;;;;;30.85;45.82;96164.41;5095014;28;20044;-65
2023/07/25 05:41:22;;;;;;;14.25;7.82;;;;;;;31.07;44.93;96161.66;5095106;28;20127;-66
2023/07/25 05:43:50;;;;;;;10.23;8.00;;;;;;;31.23;44.25;96154.25;5094838;28;20492;-65
2023/07/25 05:46:18;;;;;;;14.45;7.75;;;;;;;31.45;43.82;96167.69;5094944;28;20044;-65
2023/07/25 05:48:45;;;;;;;12.85;8.45;;;;;;;31.72;42.89;96160.53;5095110;28;20048;-65
2023/07/25 05:51:12;;;;;;;11.27;7.28;;;;;;;31.71;42.44;96158.03;5094890;28;20478;-66
2023/07/25 05:53:39;;;;;;;11.35;7.35;;;;;;;31.97;42.53;96156.47;5093975;28;20056;-65
2023/07/25 05:56:07;;;;;;;15.52;7.38;;;;;;;32.12;40.95;96157.13;5094806;28;20455;-65
2023/07/25 05:58:34;;;;;;;9.30;7.47;;;;;;;32.34;40.21;96158.81;5094662;28;20521;-65
2023/07/25 06:01:03;;;;;;;11.10;7.13;;;;;;;32.61;39.68;96154.31;5094648;28;20048;-66
2023/07/25 06:03:30;;;;;;;8.68;6.53;;;;;;;32.73;39.17;96149.09;5094327;28;20131;-66
2023/07/25 06:05:57;;;;;;;15.90;7.35;;;;;;;32.79;39.22;96147.41;5094671;28;20044;-65
2023/07/25 06:08:25;;;;;;;13.65;7.72;;;;;;;32.88;39.43;96151.56;5094473;28;20481;-65
2023/07/25 06:10:52;;;;;;;15.27;8.35;;;;;;;33.00;38.77;96150.94;5094523;28;20523;-65
2023/07/25 06:13:20;;;;;;;14.52;7.20;;;;;;;33.01;38.01;96149.88;5094478;28;20051;-66
2023/07/25 06:15:47;;;;;;;12.93;6.38;;;;;;;33.17;37.61;96143.22;5094411;28;20055;-65
2023/07/25 06:18:16;;;;;;;13.57;6.95;;;;;;;33.37;38.48;96147.72;5094324;28;20056;-65
2023/07/25 06:20:43;;;;;;;12.63;6.22;;;;;;;33.57;38.10;96149.53;5094281;28;20109;-65
2023/07/25 06:23:10;;;;;;;10.13;6.35;;;;;;;33.71;38.02;96148.44;5094135;28;20101;-66
2023/07/25 06:25:37;;;;;;;10.20;7.05;;;;;;;33.72;38.09;96147.44;5094218;28;20044;-66
2023/07/25 06:28:06;;;;;;;9.75;6.45;;;;;;;33.78;37.51;96140.31;5094231;28;20071;-65
2023/07/25 06:30:33;;;;;;;10.93;6.38;;;;;;;34.00;36.88;96139.97;5094128;28;20048;-65
2023/07/25 06:33:00;;;;;;;12.52;6.55;;;;;;;34.22;35.76;96129.63;5093980;28;20044;-66
2023/07/25 06:35:28;;;;;;;9.65;6.38;;;;;;;34.36;36.70;96134.97;5094151;28;20056;-66
2023/07/25 06:37:55;;;;;;;10.93;6.43;;;;;;;34.47;36.53;96134.25;5093890;28;20136;-65
2023/07/25 06:40:23;;;;;;;10.20;6.28;;;;;;;34.51;37.33;96127.34;5094072;28;20044;-66
2023/07/25 06:42:56;;;;;;;9.25;6.05;;;;;;;34.75;36.71;96135.72;5093858;28;20428;-65
2023/07/25 06:45:23;;;;;;;10.38;6.55;;;;;;;34.98;35.64;96125.25;5093985;28;20084;-65
2023/07/25 06:47:50;;;;;;;12.68;6.22;;;;;;;35.21;35.94;96129.25;5094086;28;20119;-66
2023/07/25 06:50:19;;;;;;;8.38;6.45;;;;;;;35.07;34.61;96126.63;5093932;28;20040;-66
2023/07/25 06:52:48;;;;;;;10.07;6.32;;;;;;;35.12;34.97;96126.78;5093741;28;20040;-65
2023/07/25 06:55:19;;;;;;;9.07;6.65;;;;;;;35.39;35.53;96122.94;5093726;28;20639;-66
2023/07/25 06:57:46;;;;;;;9.13;6.30;;;;;;;35.29;35.77;96121.63;5093725;28;20052;-66
2023/07/25 07:00:16;;;;;;;15.50;6.30;;;;;;;35.35;36.66;96121.75;5093742;28;20448;-65
2023/07/25 07:02:44;;;;;;;8.45;5.88;;;;;;;35.41;35.53;96124.41;5093422;28;20044;-66
2023/07/25 07:05:12;;;;;;;15.63;6.35;;;;;;;35.53;34.22;96113.59;5093448;28;20052;-66
2023/07/25 07:07:41;;;;;;;9.45;6.13;;;;;;;35.56;33.51;96114.16;5093498;28;20040;-66
2023/07/25 07:10:10;;;;;;;14.40;7.47;;;;;;;35.65;34.06;96113.66;5093755;28;20052;-66
2023/07/25 07:12:42;;;;;;;12.00;7.03;;;;;;;35.72;34.73;96107.31;5093483;28;20097;-66
2023/07/25 07:15:10;;;;;;;9.70;6.30;;;;;;;35.84;33.27;96110.91;5093367;28;20044;-66
2023/07/25 07:17:37;;;;;;;8.88;5.43;;;;;;;36.07;34.24;96106.59;5093365;28;20044;-65
2023/07/25 07:20:06;;;;;;;13.57;6.65;;;;;;;36.18;33.13;96096.81;5093451;28;20490;-66
2023/07/25 07:22:37;;;;;;;13.18;6.43;;;;;;;36.35;33.08;96096.19;5093329;28;20086;-66
2023/07/25 07:25:05;;;;;;;12.98;6.80;;;;;;;36.48;32.45;96101.38;5093192;28;20044;-66
2023/07/25 07:27:34;;;;;;;10.93;6.55;;;;;;;36.62;32.01;96101.13;5093251;28;20486;-66
2023/07/25 07:30:01;;;;;;;11.83;7.00;;;;;;;36.56;31.67;96089.31;5093124;28;20049;-66
2023/07/25 07:32:29;;;;;;;13.38;6.97;;;;;;;36.60;31.36;96093.22;5093257;28;20056;-66
2023/07/25 07:34:56;;;;;;;9.95;6.78;;;;;;;36.80;32.08;96092.06;5093311;28;20109;-66
2023/07/25 07:37:23;;;;;;;15.15;6.93;;;;;;;36.89;31.69;96092.53;5093170;28;20048;-66
2023/07/25 07:39:50;;;;;;;11.68;7.57;;;;;;;37.10;29.73;96082.91;5093091;28;20059;-66
2023/07/25 07:42:17;;;;;;;11.70;7.40;;;;;;;37.15;30.86;96079.47;5093312;28;20048;-66
2023/07/25 07:44:46;;;;;;;10.93;7.15;;;;;;;37.32;30.51;96076.88;5093092;28;20083;-66
2023/07/25 07:47:13;;;;;;;10.50;7.40;;;;;;;37.00;30.52;96074.53;5093108;28;20044;-66
2023/07/25 07:49:41;;;;;;;10.52;7.75;;;;;;;37.05;30.36;96071.91;5093071;28;20076;-66
2023/07/25 07:52:08;;;;;;;14.07;6.97;;;;;;;37.27;31.06;96068.56;5093054;28;20059;-66
2023/07/25 07:54:35;;;;;;;10.02;8.07;;;;;;;37.36;29.81;96069.00;5092964;28;20051;-66
2023/07/25 07:57:03;;;;;;;12.05;7.55;;;;;;;37.26;29.89;96081.34;5092884;28;20044;-66
2023/07/25 07:59:31;;;;;;;10.65;7.28;;;;;;;37.06;30.49;96081.75;5092953;28;20102;-66
2023/07/25 08:02:00;;;;;;;11.63;6.65;;;;;;;37.12;29.79;96079.94;5092975;28;20063;-66
2023/07/25 08:04:27;;;;;;;8.07;7.27;;;;;;;37.21;30.46;96072.25;5092743;28;20063;-66
2023/07/25 08:06:55;;;;;;;9.90;7.70;;;;;;;37.24;32.03;96074.50;5092845;28;20040;-66
2023/07/25 08:09:22;;;;;;;11.40;7.68;;;;;;;37.40;31.27;96076.47;5092776;28;20048;-67
2023/07/25 08:11:50;;;;;;;10.90;7.32;;;;;;;37.35;30.32;96070.09;5092754;28;20052;-67
2023/07/25 08:14:17;;;;;;;11.20;7.07;;;;;;;37.42;31.11;96065.31;5092786;28;20210;-66
2023/07/25 08:16:45;;;;;;;10.93;7.38;;;;;;;37.58;30.58;96066.44;5093370;28;20131;-67
2023/07/25 08:19:14;;;;;;;12.38;7.55;;;;;;;37.53;29.59;96069.91;5096618;28;20044;-66
2023/07/25 08:21:41;;;;;;;14.23;7.20;;;;;;;37.54;29.44;96068.84;5096628;28;20515;-67
2023/07/25 08:24:09;;;;;;;17.08;8.13;;;;;;;37.53;29.37;96066.38;5096583;28;20292;-67
2023/07/25 08:26:37;;;;;;;11.02;7.45;;;;;;;37.50;29.02;96067.66;5096467;28;20047;-66
2023/07/25 08:29:06;;;;;;;10.48;7.78;;;;;;;37.53;28.74;96074.53;5096539;28;20051;-66
2023/07/25 08:31:34;;;;;;;14.75;8.23;;;;;;;37.56;28.49;96054.97;5096438;28;20048;-66
2023/07/25 08:34:02;;;;;;;15.77;8.10;;;;;;;37.67;27.40;96059.56;5096486;28;20143;-67
2023/07/25 08:36:31;;;;;;;9.60;7.00;;;;;;;37.69;29.05;96055.75;5096314;28;20047;-66
2023/07/25 08:38:58;;;;;;;11.50;7.75;;;;;;;37.76;28.70;96050.97;5096313;28;20477;-67
2023/07/25 08:41:31;;;;;;;10.68;7.78;;;;;;;37.83;29.11;96048.09;5096370;28;20048;-66
2023/07/25 08:44:02;;;;;;;9.80;7.43;;;;;;;37.92;29.66;96041.19;5096147;28;20098;-66
2023/07/25 08:46:31;;;;;;;12.13;7.72;;;;;;;37.85;29.18;96043.22;5096221;28;20113;-66
2023/07/25 08:49:02;;;;;;;10.55;7.70;;;;;;;37.95;29.71;96037.94;5096322;28;20097;-66
2023/07/25 08:51:34;;;;;;;11.52;7.50;;;;;;;37.93;28.63;96035.44;5096309;28;20076;-66
2023/07/25 08:54:06;;;;;;;15.55;7.80;;;;;;;37.70;30.16;96035.59;5096101;28;20044;-66
2023/07/25 08:56:36;;;;;;;8.57;6.97;;;;;;;37.55;30.15;96032.31;5096143;28;20082;-66
2023/07/25 08:59:03;;;;;;;12.60;7.25;;;;;;;37.56;30.03;96033.16;5096053;28;20066;-66
2023/07/25 09:01:32;;;;;;;12.45;7.43;;;;;;;37.74;30.16;96039.50;5096091;28;20101;-66
2023/07/25 09:04:01;;;;;;;11.23;7.22;;;;;;;37.61;30.75;96033.25;5095613;28;20063;-67
2023/07/25 09:06:32;;;;;;;11.70;7.28;;;;;;;37.44;30.54;96027.75;5095883;28;20137;-66
2023/07/25 09:08:59;;;;;;;14.13;6.95;;;;;;;37.48;30.50;96028.91;5096019;28;20181;-66
2023/07/25 09:11:27;;;;;;;12.60;7.90;;;;;;;37.70;30.07;96028.25;5095736;28;20482;-66
2023/07/25 09:13:54;;;;;;;12.73;7.22;;;;;;;37.70;30.57;96020.06;5095848;28;20080;-66
2023/07/25 09:16:22;;;;;;;10.80;7.47;;;;;;;37.72;31.40;96031.56;5095677;28;20114;-66
2023/07/25 09:18:49;;;;;;;10.88;7.32;;;;;;;37.73;30.57;96027.75;5095504;28;20712;-67
2023/07/25 09:21:16;;;;;;;12.18;7.47;;;;;;;37.55;30.24;96031.47;5095540;28;20091;-66
2023/07/25 09:23:53;;;;;;;15.35;7.68;;;;;;;37.51;30.40;96022.16;5095441;28;20066;-66
2023/07/25 09:26:23;;;;;;;13.98;7.53;;;;;;;37.32;31.83;96024.25;5095351;28;20048;-66
2023/07/25 09:28:52;;;;;;;10.35;7.07;;;;;;;37.31;31.54;96017.94;5094243;28;20047;-66
2023/07/25 09:31:20;;;;;;;9.68;7.38;;;;;;;37.38;31.14;96021.34;5095303;28;20559;-66
2023/07/25 09:33:48;;;;;;;8.80;7.50;;;;;;;37.41;31.18;96023.59;5095345;28;20048;-66
2023/07/25 09:36:18;;;;;;;11.10;7.65;;;;;;;37.45;30.06;96020.38;5095307;28;20390;-66
2023/07/25 09:38:50;;;;;;;12.40;7.30;;;;;;;37.45;30.65;96015.78;5095162;28;20074;-66
2023/07/25 09:41:20;;;;;;;13.85;7.72;;;;;;;37.16;31.14;96013.00;5095111;28;20280;-66
2023/07/25 09:43:47;;;;;;;;;;;;;;;37.17;31.24;96015.47;5095585;28;20044;-66
2023/07/25 09:46:14;;;;;;;11.15;8.05;;;;;;;37.14;31.51;96007.78;5094863;28;20361;-66
2023/07/25 09:48:44;;;;;;;12.00;7.07;;;;;;;37.17;31.35;96015.47;5095118;28;20048;-66
2023/07/25 09:51:13;;;;;;;15.10;8.23;;;;;;;37.09;31.43;96010.41;5095070;28;20052;-66
2023/07/25 09:53:42;;;;;;;11.05;7.35;;;;;;;37.04;31.55;96004.84;5094878;28;20075;-65
2023/07/25 09:56:10;;;;;;;13.02;8.43;;;;;;;36.86;30.39;95997.66;5094848;28;20558;-65
2023/07/25 09:58:39;;;;;;;10.60;7.50;;;;;;;36.34;32.87;96000.09;5094786;28;20083;-66
2023/07/25 10:01:09;;;;;;;11.57;7.88;;;;;;;36.29;32.98;96000.78;5094828;28;20044;-66
2023/07/25 10:03:38;;;;;;;12.68;7.70;;;;;;;36.37;32.28;95994.16;5094458;28;20131;-66
2023/07/25 10:06:05;;;;;;;14.00;7.67;;;;;;;36.42;32.84;96004.34;5094710;28;20051;-66
2023/07/25 10:08:33;;;;;;;12.18;7.43;;;;;;;36.54;31.13;95996.19;5094645;28;20084;-66
2023/07/25 10:11:01;;;;;;;17.27;7.93;;;;;;;36.65;31.96;95992.59;5094543;28;20058;-66
2023/07/25 10:13:29;;;;;;;13.48;7.78;;;;;;;36.81;31.77;95994.84;5094543;28;20044;-66
2023/07/25 10:15:58;;;;;;;14.50;7.97;;;;;;;36.85;30.76;95990.56;5094478;28;20044;-67
2023/07/25 10:18:27;;;;;;;10.30;7.53;;;;;;;36.90;31.47;95988.78;5094319;28;20054;-66
2023/07/25 10:20:55;;;;;;;12.45;7.72;;;;;;;36.92;31.12;95980.38;5094301;28;20055;-66
2023/07/25 10:23:32;;;;;;;11.68;7.30;;;;;;;37.11;31.39;95974.75;5094430;28;20161;-67
2023/07/25 10:26:11;;;;;;;17.60;8.07;;;;;;;37.05;30.53;95980.09;5093794;28;20048;-66
2023/07/25 10:28:38;;;;;;;12.50;7.63;;;;;;;37.13;30.25;95973.44;5094209;28;20060;-66
2023/07/25 10:31:09;;;;;;;9.77;7.55;;;;;;;36.80;29.89;95969.50;5094102;28;20288;-66
2023/07/25 10:33:40;;;;;;;12.13;7.05;;;;;;;36.51;30.36;95961.25;5094082;28;20567;-66
2023/07/25 10:36:21;;;;;;;13.43;7.80;;;;;;;36.23;32.66;95960.91;5094202;28;20117;-66
2023/07/25 10:38:48;;;;;;;12.73;7.78;;;;;;;36.34;32.31;95948.38;5094043;28;20402;-66
2023/07/25 10:41:16;;;;;;;14.68;7.07;;;;;;;36.53;32.91;95949.06;5093833;28;20050;-66
2023/07/25 10:43:58;;;;;;;17.52;8.10;;;;;;;36.59;30.97;95951.91;5093972;28;20142;-66
2023/07/25 10:46:31;;;;;;;12.25;7.63;;;;;;;36.44;32.08;95949.69;5093894;28;20052;-66
2023/07/25 10:49:01;;;;;;;15.55;8.00;;;;;;;36.54;32.26;95944.44;5093779;28;20056;-66
2023/07/25 10:51:47;;;;;;;14.52;7.60;;;;;;;36.73;31.61;95950.59;5093680;28;20055;-66
2023/07/25 10:54:16;;;;;;;14.35;7.80;;;;;;;36.70;31.04;95951.06;5093697;28;20410;-66
2023/07/25 10:57:17;;;;;;;14.85;8.30;;;;;;;36.70;29.96;95942.06;5093724;28;20136;-66
2023/07/25 10:59:57;;;;;;;13.15;8.57;;;;;;;36.66;30.90;95934.34;5093637;28;20075;-66
2023/07/25 11:02:33;;;;;;;14.18;7.22;;;;;;;36.57;31.92;95930.38;5093236;28;20075;-66
2023/07/25 11:05:24;;;;;;;11.43;7.70;;;;;;;36.60;30.86;95929.06;5093467;28;20498;-66
2023/07/25 11:07:55;;;;;;;12.15;7.38;;;;;;;36.24;30.84;95929.09;5073540;28;20044;-66
2023/07/25 11:10:24;;;;;;;11.77;8.30;;;;;;;36.01;30.73;95922.56;5093354;28;20051;-67
2023/07/25 11:12:53;;;;;;;16.45;7.85;;;;;;;36.02;31.43;95916.88;5093593;28;20052;-66
2023/07/25 11:15:21;;;;;;;17.10;7.40;;;;;;;36.15;33.14;95915.00;5093490;28;20044;-66
2023/07/25 11:17:51;;;;;;;16.30;8.60;;;;;;;36.04;32.54;95905.78;5093445;28;20133;-66
2023/07/25 11:20:21;;;;;;;11.48;8.35;;;;;;;36.22;32.05;95907.56;5093531;28;20052;-66
2023/07/25 11:22:50;;;;;;;13.52;7.88;;;;;;;36.32;30.97;95904.22;5093360;28;20131;-66
2023/07/25 11:25:19;;;;;;;16.38;8.07;;;;;;;36.48;31.03;95905.38;5093275;28;20058;-66
2023/07/25 11:27:48;;;;;;;16.52;8.73;;;;;;;36.62;31.13;95905.94;5093244;28;20083;-66
2023/07/25 11:30:19;;;;;;;13.02;8.23;;;;;;;36.69;30.87;95902.28;5093227;28;20044;-67
2023/07/25 11:32:48;;;;;;;15.70;8.55;;;;;;;36.71;30.72;95898.25;5093123;28;20059;-66
2023/07/25 11:35:19;;;;;;;12.52;8.23;;;;;;;36.90;30.57;95898.09;5093261;28;20097;-66